Time;durP1;ratioP1;P1;durP2;ratioP2;P2;SDS_P1;SDS_P2;PMS_P1;PMS_P2;Temp;Humidity;BMP_temperature;BMP_pressure;BME280_temperature;BME280_humidity;BME280_pressure;Samples;Min_cycle;Max_cycle;Signal;HPM_P1;HPM_P2
2023/12/24 00:01:29;;;;;;;3.15;2.65;;;;;;;28.47;52.41;101452.56;4963649;28;66596;-37
2023/12/24 00:04:00;;;;;;;4.00;3.55;;;;;;;28.40;52.53;101435.44;4977607;28;69253;-38
2023/12/24 00:06:30;;;;;;;4.75;3.17;;;;;;;28.35;52.73;101436.00;4965580;28;66262;-38
2023/12/24 00:09:00;;;;;;;4.15;3.85;;;;;;;28.49;54.17;101466.72;4938603;28;70248;-37
2023/12/24 00:11:31;;;;;;;4.28;3.90;;;;;;;28.49;53.94;101461.31;4973949;28;66394;-37
2023/12/24 00:14:03;;;;;;;8.35;3.88;;;;;;;28.52;53.84;101467.16;4961732;28;68781;-36
2023/12/24 00:16:33;;;;;;;4.00;3.70;;;;;;;28.59;55.77;101477.22;4968014;28;66360;-38
2023/12/24 00:19:04;;;;;;;5.38;3.97;;;;;;;28.55;54.97;101482.13;4980517;28;70100;-38
2023/12/24 00:21:34;;;;;;;4.38;3.97;;;;;;;28.64;56.13;101482.84;4953325;28;65873;-38
2023/12/24 00:24:05;;;;;;;6.07;4.43;;;;;;;28.64;57.03;101482.84;4969464;28;70116;-37
2023/12/24 00:26:38;;;;;;;5.00;3.92;;;;;;;28.73;55.92;101495.22;4978348;28;66252;-38
2023/12/24 00:29:09;;;;;;;7.68;4.05;;;;;;;28.66;56.22;101483.50;4972240;28;70078;-38
2023/12/24 00:31:40;;;;;;;9.53;4.30;;;;;;;28.69;59.22;101504.72;4966576;28;66378;-38
2023/12/24 00:34:11;;;;;;;4.25;3.95;;;;;;;28.71;56.54;101502.69;4961685;28;70300;-39
2023/12/24 00:36:41;;;;;;;7.03;4.35;;;;;;;28.77;57.40;101518.09;4947077;28;66345;-39
2023/12/24 00:39:12;;;;;;;6.88;4.25;;;;;;;28.81;56.56;101519.41;4937358;28;70703;-38
2023/12/24 00:41:42;;;;;;;6.57;4.22;;;;;;;28.76;58.62;101521.84;4946064;28;66800;-37
2023/12/24 00:44:13;;;;;;;8.35;4.45;;;;;;;28.87;57.57;101532.16;4959727;28;69515;-38
2023/12/24 00:46:44;;;;;;;8.82;3.85;;;;;;;28.80;57.56;101517.72;4964512;28;66936;-38
2023/12/24 00:49:15;;;;;;;8.65;5.10;;;;;;;28.85;59.95;101527.97;4950389;28;69898;-38
2023/12/24 00:51:45;;;;;;;5.40;4.88;;;;;;;28.90;57.63;101529.06;4967347;28;66444;-39
2023/12/24 00:54:16;;;;;;;7.97;4.93;;;;;;;28.87;58.26;101534.00;4965588;28;70653;-39
2023/12/24 00:56:46;;;;;;;6.13;5.63;;;;;;;28.97;58.21;101545.31;4963512;28;66115;-37
2023/12/24 00:59:17;;;;;;;10.93;6.45;;;;;;;28.96;58.42;101549.88;4943704;28;70337;-37
2023/12/24 01:01:47;;;;;;;9.38;6.60;;;;;;;28.92;61.04;101543.22;4945375;28;67068;-38
2023/12/24 01:04:17;;;;;;;8.18;7.40;;;;;;;28.90;59.32;101529.06;4950417;28;70438;-38
2023/12/24 01:06:48;;;;;;;9.52;7.32;;;;;;;28.96;61.01;101547.19;4947441;28;66955;-38
2023/12/24 01:09:18;;;;;;;8.70;7.75;;;;;;;28.99;58.96;101545.16;4967242;28;70163;-39
2023/12/24 01:11:49;;;;;;;13.32;7.43;;;;;;;28.85;61.29;101528.78;4951315;28;66972;-38
2023/12/24 01:14:21;;;;;;;11.73;7.88;;;;;;;29.00;59.51;101544.94;4955077;28;71811;-38
2023/12/24 01:16:51;;;;;;;7.60;6.80;;;;;;;28.91;62.46;101546.94;4970979;28;65704;-38
2023/12/24 01:19:22;;;;;;;7.13;6.63;;;;;;;28.99;61.01;101564.06;4976674;28;70164;-38
2023/12/24 01:21:56;;;;;;;6.37;5.97;;;;;;;28.95;59.88;101553.63;4948502;28;66390;-38
2023/12/24 01:24:26;;;;;;;7.63;6.90;;;;;;;29.00;59.26;101561.13;4939184;28;69957;-38
2023/12/24 01:26:57;;;;;;;7.57;6.65;;;;;;;28.89;59.18;101549.00;4964907;28;66277;-38
2023/12/24 01:29:27;;;;;;;9.23;7.05;;;;;;;28.99;60.02;101570.28;4960082;28;70624;-37
2023/12/24 01:31:58;;;;;;;8.57;7.18;;;;;;;28.98;62.46;101576.72;4961001;28;66335;-39
2023/12/24 01:34:28;;;;;;;6.47;5.95;;;;;;;29.06;60.29;101581.19;4941687;28;70525;-38
2023/12/24 01:36:59;;;;;;;8.30;7.13;;;;;;;29.00;61.57;101579.22;4944138;28;67042;-38
2023/12/24 01:39:30;;;;;;;8.85;7.47;;;;;;;29.08;59.69;101573.72;4962015;28;70626;-38
2023/12/24 01:42:00;;;;;;;8.13;7.40;;;;;;;29.12;59.71;101585.84;4940506;28;65908;-37
2023/12/24 01:44:31;;;;;;;10.50;7.43;;;;;;;29.15;59.57;101580.06;4951011;28;70955;-39
2023/12/24 01:47:02;;;;;;;7.30;6.55;;;;;;;29.06;60.65;101567.69;4964017;28;66823;-37
2023/12/24 01:49:32;;;;;;;15.95;7.97;;;;;;;29.13;60.15;101587.50;4959864;28;70567;-37
2023/12/24 01:52:03;;;;;;;8.35;7.55;;;;;;;29.13;60.79;101582.09;4968771;28;66416;-38
2023/12/24 01:54:35;;;;;;;8.90;8.13;;;;;;;29.19;59.87;101586.72;4967868;28;70050;-38
2023/12/24 01:57:06;;;;;;;8.48;7.72;;;;;;;29.18;60.88;101591.31;4944939;28;65522;-38
2023/12/24 01:59:38;;;;;;;9.32;8.05;;;;;;;29.25;60.04;101590.53;4961130;28;71418;-38
2023/12/24 02:02:09;;;;;;;9.35;8.65;;;;;;;28.67;62.36;101501.41;4976677;28;66422;-41
2023/12/24 02:04:41;;;;;;;8.70;7.93;;;;;;;29.16;60.40;101584.41;4960574;28;70961;-37
2023/12/24 02:07:13;;;;;;;9.57;8.63;;;;;;;29.18;60.71;101574.25;4945532;28;66126;-37
2023/12/24 02:09:44;;;;;;;10.45;8.70;;;;;;;29.12;63.01;101566.94;4967396;28;69907;-36
2023/12/24 02:12:14;;;;;;;9.50;8.70;;;;;;;29.27;60.33;101573.09;4927974;28;66648;-37
2023/12/24 02:14:45;;;;;;;9.27;8.30;;;;;;;29.28;60.48;101582.03;4947016;28;69972;-38
2023/12/24 02:17:17;;;;;;;11.77;9.70;;;;;;;29.28;61.75;101582.91;4965926;28;65482;-37
2023/12/24 02:19:48;;;;;;;9.30;8.45;;;;;;;29.31;60.67;101579.81;4946266;28;70025;-38
2023/12/24 02:22:19;;;;;;;17.50;9.68;;;;;;;29.32;61.24;101572.53;4930957;28;66144;-37
2023/12/24 02:24:49;;;;;;;10.13;9.25;;;;;;;29.37;60.28;101579.03;4936136;28;70699;-37
2023/12/24 02:27:51;;;;;;;10.15;9.25;;;;;;;29.24;62.38;101573.47;4931067;28;68698;-37
2023/12/24 02:30:27;;;;;;;14.32;9.50;;;;;;;29.33;62.09;101583.13;4939954;28;70720;-37
2023/12/24 02:32:58;;;;;;;15.48;9.20;;;;;;;29.33;61.06;101572.31;4947408;28;67010;-38
2023/12/24 02:35:37;;;;;;;11.10;8.82;;;;;;;29.34;62.54;101579.41;4968257;28;70375;-38
2023/12/24 02:38:07;;;;;;;9.50;8.60;;;;;;;29.31;60.74;101551.91;4965089;28;66375;-37
2023/12/24 02:40:38;;;;;;;16.80;8.45;;;;;;;29.37;62.00;101568.22;4968836;28;70200;-38
2023/12/24 02:43:11;;;;;;;13.18;7.95;;;;;;;29.41;61.38;101563.25;4950840;28;65796;-37
2023/12/24 02:45:44;;;;;;;13.05;8.02;;;;;;;29.45;61.25;101556.44;4977637;28;70050;-37
2023/12/24 02:48:15;;;;;;;8.77;8.07;;;;;;;29.44;61.29;101551.22;4960917;28;65690;-40
2023/12/24 02:50:45;;;;;;;10.85;6.70;;;;;;;29.42;60.46;101539.75;4970442;28;69359;-39
2023/12/24 02:53:16;;;;;;;12.15;7.25;;;;;;;29.59;59.63;101549.28;4950777;28;65804;-39
2023/12/24 02:55:47;;;;;;;9.65;6.35;;;;;;;29.62;59.43;101551.59;4964509;28;70590;-39
2023/12/24 02:58:17;;;;;;;6.80;6.20;;;;;;;29.67;59.09;101557.28;4978328;28;65980;-39
2023/12/24 03:00:47;;;;;;;8.70;6.28;;;;;;;29.71;59.07;101560.41;4956525;28;70660;-39
2023/12/24 03:03:18;;;;;;;6.30;5.80;;;;;;;29.69;59.47;101549.78;4934825;28;65552;-38
2023/12/24 03:05:48;;;;;;;6.18;5.68;;;;;;;29.76;59.42;101550.69;4953625;28;70530;-38
2023/12/24 03:08:19;;;;;;;9.95;5.43;;;;;;;29.71;59.01;101531.50;4931429;28;66076;-38
2023/12/24 03:10:50;;;;;;;6.35;5.80;;;;;;;29.79;59.41;101542.19;4954792;28;70117;-38
2023/12/24 03:13:20;;;;;;;6.18;5.78;;;;;;;29.82;59.28;101528.25;4962022;28;66856;-39
2023/12/24 03:15:50;;;;;;;8.65;5.70;;;;;;;29.86;59.03;101530.56;4964022;28;69947;-38
2023/12/24 03:18:23;;;;;;;6.35;5.75;;;;;;;29.84;59.22;101531.59;4963177;28;43593;-39
2023/12/24 03:20:54;;;;;;;6.95;6.10;;;;;;;29.90;58.79;101527.28;4973066;28;70379;-40
2023/12/24 03:23:24;;;;;;;5.80;5.40;;;;;;;29.91;59.43;101530.81;4957271;28;66536;-39
2023/12/24 03:25:55;;;;;;;5.90;5.40;;;;;;;29.91;59.23;101531.63;4967197;28;70178;-38
2023/12/24 03:28:25;;;;;;;5.20;4.85;;;;;;;29.95;59.46;101522.09;4975116;28;66759;-40
2023/12/24 03:30:56;;;;;;;7.13;5.10;;;;;;;29.80;58.92;101491.63;4981439;28;69482;-41
2023/12/24 03:33:27;;;;;;;6.53;5.07;;;;;;;29.76;58.97;101482.25;4962296;28;66698;-39
2023/12/24 03:35:58;;;;;;;5.90;5.50;;;;;;;29.88;59.04;101494.16;4966468;28;70245;-39
2023/12/24 03:38:29;;;;;;;4.75;4.35;;;;;;;29.99;59.07;101509.00;4972917;28;66890;-39
2023/12/24 03:40:59;;;;;;;5.40;4.90;;;;;;;29.99;58.81;101503.59;4959277;28;70486;-39
2023/12/24 03:43:30;;;;;;;5.22;4.78;;;;;;;30.05;58.95;101505.50;4946660;28;66350;-38
2023/12/24 03:46:01;;;;;;;5.78;5.38;;;;;;;29.80;61.62;101497.88;4951373;28;69174;-40
2023/12/24 03:48:33;;;;;;;5.47;5.10;;;;;;;29.79;61.14;101501.63;4950890;28;67067;-38
2023/12/24 03:51:04;;;;;;;5.03;4.70;;;;;;;29.61;62.40;101482.31;4979493;28;70718;-39
2023/12/24 03:53:37;;;;;;;9.77;5.13;;;;;;;29.73;62.83;101485.34;4968703;28;66857;-38
2023/12/24 03:56:11;;;;;;;6.10;4.55;;;;;;;29.73;62.93;101482.66;4942303;28;69978;-39
2023/12/24 03:58:42;;;;;;;7.28;5.10;;;;;;;29.75;61.58;101478.69;4945741;28;66572;-40
2023/12/24 04:01:13;;;;;;;5.25;4.85;;;;;;;29.74;62.79;101478.91;4961059;28;70589;-41
2023/12/24 04:03:46;;;;;;;5.53;5.07;;;;;;;29.74;61.26;101477.03;4954889;28;66829;-39
2023/12/24 04:06:19;;;;;;;4.97;4.57;;;;;;;29.79;62.06;101469.16;4964558;28;70118;-38
2023/12/24 04:08:49;;;;;;;7.88;4.38;;;;;;;29.75;63.00;101467.03;4956711;28;66556;-40
2023/12/24 04:11:21;;;;;;;4.67;4.30;;;;;;;29.79;62.59;101458.34;4969072;28;70313;-39
2023/12/24 04:13:51;;;;;;;5.65;4.00;;;;;;;29.81;62.86;101452.72;4960033;28;66790;-40
2023/12/24 04:16:23;;;;;;;4.45;4.03;;;;;;;29.79;63.56;101452.94;4969509;28;70014;-39
2023/12/24 04:18:54;;;;;;;4.15;3.90;;;;;;;29.78;62.58;101440.47;4962567;28;65242;-38
2023/12/24 04:21:24;;;;;;;3.90;3.60;;;;;;;29.83;64.27;101443.38;4978988;28;70052;-40
2023/12/24 04:23:55;;;;;;;4.18;3.88;;;;;;;29.90;63.60;101438.03;4969436;28;65634;-39
2023/12/24 04:26:25;;;;;;;5.13;4.10;;;;;;;29.91;64.29;101433.44;4971869;28;69394;-38
2023/12/24 04:28:55;;;;;;;4.47;4.07;;;;;;;29.76;64.16;101398.44;4974588;28;65331;-38
2023/12/24 04:31:26;;;;;;;4.78;4.28;;;;;;;30.00;62.32;101432.22;4979598;28;70603;-38
2023/12/24 04:33:58;;;;;;;6.88;4.57;;;;;;;29.98;64.05;101428.91;4976115;28;67121;-39
2023/12/24 04:36:29;;;;;;;5.38;3.90;;;;;;;29.95;64.73;101418.47;4962783;28;70141;-40
2023/12/24 04:38:59;;;;;;;6.35;4.50;;;;;;;30.03;63.78;101416.44;4954398;28;66397;-38
2023/12/24 04:41:30;;;;;;;4.80;4.40;;;;;;;30.04;65.68;101411.88;4982367;28;69663;-39
2023/12/24 04:44:02;;;;;;;6.72;4.63;;;;;;;30.10;63.50;101411.06;4972569;28;66435;-38
2023/12/24 04:46:39;;;;;;;12.00;4.32;;;;;;;30.11;63.85;101396.47;4971204;28;69462;-38
2023/12/24 04:49:09;;;;;;;4.13;3.72;;;;;;;30.11;64.76;101391.06;4989421;28;66526;-38
2023/12/24 04:51:43;;;;;;;6.93;3.95;;;;;;;30.15;63.08;101388.81;4974233;28;70798;-38
2023/12/24 04:54:13;;;;;;;5.18;4.03;;;;;;;30.03;62.69;101367.75;4979110;28;66214;-38
2023/12/24 04:56:44;;;;;;;4.70;4.30;;;;;;;30.08;64.14;101372.53;4978703;28;69704;-39
2023/12/24 04:59:14;;;;;;;4.65;3.88;;;;;;;30.17;63.16;101378.59;4999151;28;67013;-39
2023/12/24 05:01:45;;;;;;;5.53;3.60;;;;;;;30.13;63.93;101383.59;4972957;28;70159;-38
2023/12/24 05:04:15;;;;;;;4.03;3.72;;;;;;;30.11;63.47;101380.25;4978387;28;66422;-37
2023/12/24 05:06:46;;;;;;;8.30;4.82;;;;;;;30.20;62.67;101378.19;4961568;28;69981;-37
2023/12/24 05:09:17;;;;;;;4.50;4.07;;;;;;;30.13;63.46;101378.19;4970366;28;66057;-37
2023/12/24 05:11:47;;;;;;;5.10;3.97;;;;;;;30.13;62.42;101359.22;4961415;28;70438;-38
2023/12/24 05:14:17;;;;;;;9.82;5.63;;;;;;;30.01;62.36;101325.72;4978684;28;66754;-37
2023/12/24 05:16:47;;;;;;;19.58;6.15;;;;;;;30.25;62.09;101354.91;4992154;28;70434;-37
2023/12/24 05:19:18;;;;;;;10.18;5.57;;;;;;;30.22;63.97;101347.22;4965891;28;68187;-38
2023/12/24 05:21:49;;;;;;;12.60;5.38;;;;;;;30.23;63.23;101351.59;4973175;28;69914;-39
2023/12/24 05:24:19;;;;;;;11.10;5.13;;;;;;;30.14;62.99;101325.72;4959483;28;65987;-38
2023/12/24 05:26:49;;;;;;;8.70;5.32;;;;;;;30.20;63.38;101335.75;4976454;28;70643;-38
2023/12/24 05:29:19;;;;;;;6.53;5.85;;;;;;;30.17;61.96;101314.50;4967343;28;65471;-38
2023/12/24 05:31:51;;;;;;;6.97;5.30;;;;;;;30.28;62.65;101337.44;4977454;28;70648;-37
2023/12/24 05:34:21;;;;;;;6.60;5.40;;;;;;;30.28;62.79;101330.19;4982701;28;66876;-37
2023/12/24 05:36:52;;;;;;;11.82;6.65;;;;;;;30.14;63.04;101306.78;4994173;28;69677;-37
2023/12/24 05:39:22;;;;;;;9.90;6.03;;;;;;;30.22;62.53;101306.63;4969536;28;65748;-38
2023/12/24 05:41:53;;;;;;;16.75;6.05;;;;;;;30.25;62.66;101306.19;4988682;28;70386;-38
2023/12/24 05:44:23;;;;;;;8.77;5.90;;;;;;;30.22;63.01;101301.19;4987711;28;66933;-38
2023/12/24 05:46:54;;;;;;;6.57;5.63;;;;;;;30.31;62.05;101303.72;4986495;28;69573;-39
2023/12/24 05:49:24;;;;;;;8.50;5.45;;;;;;;30.27;63.13;101287.91;4956151;28;65571;-39
2023/12/24 05:51:54;;;;;;;6.25;5.35;;;;;;;30.24;61.42;101291.00;4981831;28;70477;-38
2023/12/24 05:54:24;;;;;;;9.50;5.57;;;;;;;30.00;60.41;101264.50;4984112;28;66459;-38
2023/12/24 05:56:55;;;;;;;8.32;5.05;;;;;;;30.02;60.33;101279.50;4977342;28;70686;-38
2023/12/24 05:59:26;;;;;;;6.22;4.85;;;;;;;30.09;59.49;101284.94;4993557;28;66505;-38
2023/12/24 06:01:56;;;;;;;6.47;5.80;;;;;;;29.99;58.37;101281.78;4990324;28;70043;-38
2023/12/24 06:04:27;;;;;;;7.03;5.00;;;;;;;30.00;58.80;101276.16;4968156;28;66278;-39
2023/12/24 06:06:57;;;;;;;5.47;5.03;;;;;;;30.00;58.19;101268.03;4950058;28;70008;-39
2023/12/24 06:09:27;;;;;;;5.53;4.80;;;;;;;29.94;56.93;101265.34;4981233;28;66475;-39
2023/12/24 06:11:58;;;;;;;4.95;4.55;;;;;;;29.87;56.53;101254.50;4968684;28;69395;-41
2023/12/24 06:14:28;;;;;;;5.88;5.30;;;;;;;29.89;56.85;101254.28;4971658;28;65923;-37
2023/12/24 06:16:59;;;;;;;5.55;5.03;;;;;;;29.86;56.24;101257.41;4987808;28;70494;-40
2023/12/24 06:19:29;;;;;;;5.23;4.83;;;;;;;29.82;56.11;101249.72;4976520;28;67133;-39
2023/12/24 06:22:01;;;;;;;4.40;4.10;;;;;;;29.79;55.48;101244.72;4992148;28;70674;-38
2023/12/24 06:24:31;;;;;;;4.60;4.30;;;;;;;29.79;55.87;101239.31;4995219;28;66669;-37
2023/12/24 06:27:01;;;;;;;7.38;4.18;;;;;;;29.72;54.01;101237.63;4966581;28;69860;-38
2023/12/24 06:29:32;;;;;;;4.55;4.22;;;;;;;29.73;55.00;101236.59;4984262;28;66005;-38
2023/12/24 06:32:02;;;;;;;5.07;4.65;;;;;;;29.63;53.94;101226.16;4967016;28;70325;-37
2023/12/24 06:34:33;;;;;;;4.30;3.90;;;;;;;29.67;54.12;101235.53;4985130;28;66616;-39
2023/12/24 06:37:03;;;;;;;4.30;3.90;;;;;;;29.65;52.82;101236.78;4973052;28;70600;-38
2023/12/24 06:39:34;;;;;;;4.20;3.90;;;;;;;29.63;52.66;101231.56;4998460;28;66798;-39
2023/12/24 06:42:04;;;;;;;4.60;4.10;;;;;;;29.21;52.73;101165.91;4986349;28;70461;-39
2023/12/24 06:44:35;;;;;;;3.70;3.40;;;;;;;29.48;51.75;101222.75;4971524;28;66352;-38
2023/12/24 06:47:05;;;;;;;4.20;3.90;;;;;;;29.60;53.49;101216.53;4966249;28;69458;-38
2023/12/24 06:49:35;;;;;;;4.20;3.85;;;;;;;29.56;51.83;101219.84;4992030;28;66544;-38
2023/12/24 06:52:06;;;;;;;7.50;4.28;;;;;;;29.54;52.08;101221.94;4982953;28;69756;-39
2023/12/24 06:54:36;;;;;;;5.68;4.15;;;;;;;29.48;51.39;101209.25;4988586;28;66469;-39
2023/12/24 06:57:08;;;;;;;5.35;3.72;;;;;;;29.43;51.30;101209.03;4977560;28;70173;-38
2023/12/24 06:59:38;;;;;;;4.47;4.07;;;;;;;29.40;51.44;101197.56;4996163;28;66461;-39
2023/12/24 07:02:09;;;;;;;4.30;4.00;;;;;;;29.50;51.25;101216.09;4996374;28;70608;-40
2023/12/24 07:04:39;;;;;;;4.30;3.88;;;;;;;29.42;51.77;101197.38;4990522;28;66543;-37
2023/12/24 07:07:10;;;;;;;4.20;3.90;;;;;;;29.50;51.25;101207.16;4989174;28;69092;-38
2023/12/24 07:09:41;;;;;;;4.43;3.80;;;;;;;29.42;50.94;101185.72;4968272;28;66750;-38
2023/12/24 07:12:11;;;;;;;4.78;4.45;;;;;;;29.44;52.58;101183.66;4991104;28;70053;-38
2023/12/24 07:14:42;;;;;;;4.38;4.07;;;;;;;29.50;51.88;101189.06;4969396;28;65758;-38
2023/12/24 07:17:12;;;;;;;7.18;4.22;;;;;;;29.50;51.05;101190.94;4972347;28;67913;-38
2023/12/24 07:19:43;;;;;;;4.22;3.92;;;;;;;29.55;51.73;101201.97;4947127;28;66158;-39
2023/12/24 07:22:16;;;;;;;6.13;3.65;;;;;;;29.46;51.05;101184.28;4942783;28;69932;-38
2023/12/24 07:24:47;;;;;;;4.05;3.75;;;;;;;29.53;51.56;101188.69;4941718;28;66368;-39
2023/12/24 07:27:20;;;;;;;4.18;3.97;;;;;;;29.53;51.18;101193.22;4969053;28;70083;-38
2023/12/24 07:29:50;;;;;;;4.72;3.85;;;;;;;29.51;50.94;101179.09;4941176;28;65251;-39
2023/12/24 07:32:21;;;;;;;3.25;3.05;;;;;;;29.50;51.28;101178.25;4953315;28;70240;-38
2023/12/24 07:34:51;;;;;;;3.63;3.33;;;;;;;29.50;50.10;101178.25;4969178;28;66793;-38
2023/12/24 07:37:22;;;;;;;3.95;3.65;;;;;;;29.48;50.12;101168.72;4973127;28;69227;-37
2023/12/24 07:39:53;;;;;;;3.95;3.65;;;;;;;29.49;51.53;101159.56;4968828;28;67537;-38
2023/12/24 07:42:23;;;;;;;3.53;3.33;;;;;;;29.55;50.88;101164.13;4972982;28;70144;-38
2023/12/24 07:44:53;;;;;;;3.67;3.03;;;;;;;29.57;51.29;101171.00;4965624;28;66323;-38
2023/12/24 07:47:24;;;;;;;4.40;4.10;;;;;;;29.54;49.90;101173.28;4949321;28;70305;-38
2023/12/24 07:49:54;;;;;;;4.13;3.45;;;;;;;29.53;49.92;101172.47;4934486;28;65211;-38
2023/12/24 07:52:25;;;;;;;4.57;3.40;;;;;;;29.50;51.03;101158.50;4959273;28;69387;-38
2023/12/24 07:54:56;;;;;;;3.60;3.40;;;;;;;29.58;51.02;101174.53;4952600;28;66017;-40
2023/12/24 07:57:27;;;;;;;9.02;3.70;;;;;;;29.55;49.92;101169.53;4962094;28;69253;-37
2023/12/24 07:59:57;;;;;;;7.28;3.55;;;;;;;29.48;50.75;101158.72;4960519;28;66199;-39
2023/12/24 08:02:28;;;;;;;4.07;3.72;;;;;;;29.47;50.39;101151.63;4947199;28;69200;-39
2023/12/24 08:05:00;;;;;;;4.10;3.80;;;;;;;29.63;50.85;101161.28;4950852;28;66334;-38
2023/12/24 08:07:31;;;;;;;4.40;4.10;;;;;;;29.62;50.13;101170.41;4942859;28;70688;-38
2023/12/24 08:10:02;;;;;;;5.47;4.17;;;;;;;29.57;49.79;101170.19;4953269;28;65904;-38
2023/12/24 08:12:32;;;;;;;3.72;3.40;;;;;;;29.62;49.81;101173.09;4957795;28;69686;-37
2023/12/24 08:15:03;;;;;;;7.38;3.97;;;;;;;29.54;50.22;101159.78;4940439;28;66055;-37
2023/12/24 08:17:33;;;;;;;4.38;4.07;;;;;;;29.69;50.35;101173.13;4959533;28;69584;-37
2023/12/24 08:20:07;;;;;;;4.68;4.03;;;;;;;29.69;50.37;101162.31;4949130;28;65733;-37
2023/12/24 08:22:38;;;;;;;6.70;5.72;;;;;;;29.81;52.14;101169.63;4965632;28;69596;-37
2023/12/24 08:25:09;;;;;;;10.10;5.63;;;;;;;29.95;52.90;101164.22;4926654;28;66102;-37
2023/12/24 08:27:39;;;;;;;8.02;5.95;;;;;;;29.99;53.02;101163.59;4945841;28;69857;-38
2023/12/24 08:30:10;;;;;;;11.40;5.55;;;;;;;30.13;53.67;101164.44;4960495;28;66273;-38
2023/12/24 08:32:41;;;;;;;5.73;5.17;;;;;;;30.21;53.61;101179.63;4944143;28;69725;-39
2023/12/24 08:35:12;;;;;;;6.97;5.28;;;;;;;30.24;53.52;101163.84;4974891;28;66761;-39
2023/12/24 08:37:42;;;;;;;5.25;4.95;;;;;;;30.37;53.87;101173.81;4966608;28;69334;-39
2023/12/24 08:40:12;;;;;;;8.52;5.03;;;;;;;30.45;54.08;101176.31;4940369;28;66608;-39
2023/12/24 08:42:43;;;;;;;7.50;4.60;;;;;;;30.50;53.78;101172.97;4962832;28;70132;-36
2023/12/24 08:45:14;;;;;;;5.05;4.55;;;;;;;30.58;54.06;101180.84;4945938;28;66816;-38
2023/12/24 08:47:44;;;;;;;6.15;4.20;;;;;;;30.60;53.96;101167.94;4955118;28;69975;-39
2023/12/24 08:50:16;;;;;;;8.15;5.15;;;;;;;30.57;54.46;101171.09;4958777;28;65592;-37
2023/12/24 08:52:46;;;;;;;9.10;5.88;;;;;;;30.63;55.08;101167.53;4963134;28;71652;-37
2023/12/24 08:55:16;;;;;;;8.65;7.00;;;;;;;30.68;57.31;101185.84;4977812;28;66295;-39
2023/12/24 08:57:47;;;;;;;6.97;6.38;;;;;;;30.66;57.31;101183.34;4950154;28;69631;-39
2023/12/24 09:00:18;;;;;;;10.05;6.75;;;;;;;30.70;57.39;101172.91;4972034;28;65551;-38
2023/12/24 09:02:49;;;;;;;10.15;6.93;;;;;;;30.66;58.79;101177.09;4953076;28;68195;-39
2023/12/24 09:05:19;;;;;;;7.97;6.80;;;;;;;30.72;57.51;101171.66;4958910;28;66885;-38
2023/12/24 09:07:50;;;;;;;12.80;7.30;;;;;;;30.76;58.54;101182.06;4945141;28;70047;-38
2023/12/24 09:10:20;;;;;;;11.80;7.28;;;;;;;30.78;58.58;101182.69;4963249;28;66256;-38
2023/12/24 09:12:51;;;;;;;9.05;7.53;;;;;;;30.76;59.71;101188.34;4959303;28;70428;-38
2023/12/24 09:15:22;;;;;;;9.23;7.35;;;;;;;30.75;59.73;101193.94;4960488;28;66044;-39
2023/12/24 09:17:52;;;;;;;9.82;7.32;;;;;;;30.76;58.54;101190.19;4962982;28;70258;-39
2023/12/24 09:20:23;;;;;;;8.27;7.33;;;;;;;30.76;58.59;101192.91;4961268;28;66205;-39
2023/12/24 09:22:54;;;;;;;8.57;7.63;;;;;;;30.78;60.04;101185.41;4958405;28;70184;-38
2023/12/24 09:25:24;;;;;;;8.57;7.78;;;;;;;30.75;60.69;101191.25;4970242;28;65727;-38
2023/12/24 09:27:54;;;;;;;8.07;7.28;;;;;;;30.76;60.79;101187.47;4968319;28;70606;-38
2023/12/24 09:30:24;;;;;;;6.75;6.22;;;;;;;30.81;60.77;101203.97;4960219;28;66592;-37
2023/12/24 09:32:55;;;;;;;10.95;6.75;;;;;;;30.78;61.70;101196.22;4965622;28;70643;-37
2023/12/24 09:35:27;;;;;;;8.40;7.47;;;;;;;30.85;60.58;101202.50;4958694;28;65705;-37
2023/12/24 09:37:58;;;;;;;10.80;7.90;;;;;;;30.91;60.45;101212.50;4965727;28;69889;-37
2023/12/24 09:40:28;;;;;;;15.85;8.40;;;;;;;30.92;60.75;101208.72;4971594;28;66325;-38
2023/12/24 09:43:00;;;;;;;11.82;8.00;;;;;;;30.96;60.61;101209.16;4965609;28;70818;-37
2023/12/24 09:45:32;;;;;;;;;;;;;;;30.70;63.32;101211.69;4961729;28;65973;-38
2023/12/24 09:48:03;;;;;;;12.80;8.50;;;;;;;30.91;62.13;101207.91;4966864;28;70416;-38
2023/12/24 09:50:34;;;;;;;12.47;8.20;;;;;;;30.89;59.98;101198.31;4955285;28;65898;-38
2023/12/24 09:53:06;;;;;;;9.45;8.27;;;;;;;30.87;59.96;101190.41;4967250;28;70039;-37
2023/12/24 09:55:38;;;;;;;10.55;7.50;;;;;;;30.94;60.73;101212.06;4964976;28;66336;-37
2023/12/24 09:58:09;;;;;;;12.65;8.45;;;;;;;31.03;60.78;101231.63;4966678;28;69811;-38
2023/12/24 10:00:39;;;;;;;8.40;7.60;;;;;;;30.85;61.85;101207.91;4965850;28;66091;-37
2023/12/24 10:03:09;;;;;;;12.65;8.30;;;;;;;31.03;60.67;101227.03;4968954;28;70510;-37
2023/12/24 10:05:59;;;;;;;9.00;8.32;;;;;;;30.89;62.75;101231.66;4978193;28;66925;-37
2023/12/24 10:08:36;;;;;;;10.48;7.13;;;;;;;30.98;62.80;101237.69;4971127;28;68739;-37
2023/12/24 10:11:13;;;;;;;12.60;8.48;;;;;;;30.93;63.14;101245.63;4977736;28;65798;-38
2023/12/24 10:13:44;;;;;;;14.40;8.50;;;;;;;30.95;61.44;101227.25;4966037;28;69734;-38
2023/12/24 10:16:15;;;;;;;9.20;8.32;;;;;;;30.99;61.29;101244.75;4966162;28;66647;-38
2023/12/24 10:18:53;;;;;;;9.13;8.30;;;;;;;31.00;62.24;101248.31;4988000;28;70123;-37
2023/12/24 10:21:25;;;;;;;12.93;9.40;;;;;;;31.00;61.37;101242.88;4960129;28;65394;-37
2023/12/24 10:24:04;;;;;;;12.55;9.15;;;;;;;30.98;63.44;101248.53;4998552;28;69494;-37
2023/12/24 10:26:36;;;;;;;10.35;9.35;;;;;;;30.98;62.63;101242.25;5004258;28;65562;-38
2023/12/24 10:29:06;;;;;;;;;;;;;;;30.68;64.26;101245.44;4986024;28;70624;-38
2023/12/24 10:31:52;;;;;;;12.98;11.93;;;;;;;30.90;63.70;101248.75;4978613;28;66839;-39
2023/12/24 10:34:23;;;;;;;16.23;14.27;;;;;;;30.92;63.02;101249.34;4980466;28;70286;-38
2023/12/24 10:36:55;;;;;;;17.60;15.88;;;;;;;30.95;62.37;101240.81;4995536;28;66337;-38
2023/12/24 10:39:25;;;;;;;;;;;;;;;30.65;64.77;101252.09;4981050;28;70621;-38
2023/12/24 10:41:56;;;;;;;22.02;16.27;;;;;;;30.88;62.32;101245.41;4959234;28;66229;-38
2023/12/24 10:44:26;;;;;;;20.90;16.50;;;;;;;30.87;62.12;101239.19;4985477;28;70284;-37
2023/12/24 10:46:56;;;;;;;17.38;15.35;;;;;;;30.93;62.02;101253.75;4984558;28;66434;-38
2023/12/24 10:49:27;;;;;;;20.50;15.55;;;;;;;30.77;61.46;101229.78;4984987;28;70009;-38
2023/12/24 10:51:59;;;;;;;23.10;16.70;;;;;;;30.90;62.36;101254.16;4968850;28;65907;-37
2023/12/24 10:54:30;;;;;;;17.50;15.32;;;;;;;30.84;62.50;101255.00;4978514;28;69317;-37
2023/12/24 10:57:03;;;;;;;16.80;14.82;;;;;;;30.88;62.83;101267.09;4980126;28;67126;-39
2023/12/24 10:59:58;;;;;;;17.08;15.13;;;;;;;30.88;63.02;101261.66;4982585;28;70319;-37
2023/12/24 11:02:28;;;;;;;16.20;14.52;;;;;;;30.85;62.09;101267.50;4982060;28;66726;-37
2023/12/24 11:04:59;;;;;;;15.88;14.23;;;;;;;30.89;61.64;101263.31;4971301;28;69901;-38
2023/12/24 11:07:46;;;;;;;18.67;14.93;;;;;;;30.93;63.56;101278.13;4972767;28;66318;-37
2023/12/24 11:10:43;;;;;;;16.27;14.48;;;;;;;30.92;64.22;101279.16;4990220;28;70500;-39
2023/12/24 11:13:32;;;;;;;14.80;13.50;;;;;;;30.78;64.77;101280.19;4975525;28;66097;-38
2023/12/24 11:16:04;;;;;;;17.92;14.48;;;;;;;30.87;63.49;101287.94;4980076;28;70220;-37
2023/12/24 11:18:44;;;;;;;19.98;14.63;;;;;;;30.82;64.14;101292.31;4962832;28;65744;-37
2023/12/24 11:21:19;;;;;;;15.60;14.00;;;;;;;30.88;64.04;101302.31;4979647;28;69454;-37
2023/12/24 11:24:08;;;;;;;15.60;14.07;;;;;;;30.79;64.64;101293.53;4956048;28;65982;-38
2023/12/24 11:26:49;;;;;;;16.38;12.95;;;;;;;30.85;64.53;101305.44;4969806;28;69185;-37
2023/12/24 11:29:43;;;;;;;16.48;14.02;;;;;;;30.79;64.25;101298.13;4971574;28;66426;-37
2023/12/24 11:32:34;;;;;;;20.45;13.40;;;;;;;30.71;65.03;101310.81;4955435;28;70045;-38
2023/12/24 11:35:06;;;;;;;20.42;18.35;;;;;;;30.87;63.04;101292.50;4945024;28;65917;-39
2023/12/24 11:37:39;;;;;;;23.48;14.93;;;;;;;30.86;62.87;101301.66;4946483;28;70416;-39
2023/12/24 11:40:14;;;;;;;15.27;13.98;;;;;;;30.35;64.20;101218.38;4952632;28;65277;-37
2023/12/24 11:42:49;;;;;;;15.18;13.80;;;;;;;30.90;64.20;101308.34;4955529;28;68930;-43